Flight Track Log - Related Links

Times and Time Zones

All times are in EDT time to prevent confusion due to time zone crossing. See the N12UP flight status page for this flight to view local times or setup timezone preferences in your user account.

Time Position Orientation Groundspeed Altitude Reporting Facility
EDT Latitude Longitude Course Direction KTS MPH feet Rate Location/Type
Sun 05:44:23 PM 42.8239 -73.7933 14° North 161 185 2,600  Level Boston Center
Sun 05:45:24 PM 42.8678 -73.7800 13° North 161 185 3,800 1,009 Climbing Boston Center
Sun 05:46:10 PM 42.8950 -73.7636 24° Northeast 162 186 4,400 1,132 Climbing Boston Center
Sun 05:47:10 PM 42.9431 -73.7475 14° North 172 198 5,800 1,200 Climbing Boston Center
Sun 05:48:10 PM 42.9828 -73.7314 17° North 162 186 6,800 950 Climbing Boston Center
Sun 05:49:00 PM 43.0378 -73.6874 14° North  Level FlightAware Approximate
Sun 05:49:10 PM 43.0331 -73.7125 15° North 167 192 7,700  Level Boston Center
Sun 05:50:10 PM 43.0728 -73.6964 17° North 167 192 8,300 550 Climbing Boston Center
Sun 05:51:10 PM 43.1253 -73.6775 15° North 167 192 8,800 350 Climbing Boston Center
Sun 05:52:10 PM 43.1692 -73.6614 15° North 167 192 9,000 99 Climbing Boston Center
Sun 05:53:11 PM 43.2297 -73.6369 16° North 184 212 9,000  Level Boston Center
Sun 05:54:10 PM 43.2842 -73.6150 16° North 207 238 9,000  Level Boston Center
Sun 05:55:10 PM 43.3533 -73.5878 16° North 227 261 9,000  Level Boston Center
Sun 05:56:10 PM 43.4222 -73.5692 11° North 246 283 9,000  Level Boston Center
Sun 05:57:22 PM 43.5058 -73.5336 17° North 251 289 9,000  Level Boston Center
Sun 05:58:22 PM 43.5750 -73.5033 18° North 251 289 9,000  Level Boston Center
Sun 05:59:22 PM 43.6439 -73.4786 15° North 251 289 9,000  Level Boston Center
Sun 06:00:22 PM 43.7067 -73.4539 16° North 251 289 9,000  Level Boston Center
Sun 06:01:22 PM 43.7778 -73.4264 16° North 251 289 9,000 -100 Level Boston Center
Sun 06:02:22 PM 43.8469 -73.3986 16° North 251 289 8,800 -350 Descending Boston Center
Sun 06:03:22 PM 43.9264 -73.3711 14° North 261 300 8,300 -600 Descending Boston Center
Sun 06:04:22 PM 43.9953 -73.3433 16° North 256 295 7,600 -800 Descending Boston Center
Sun 06:05:22 PM 44.0683 -73.3128 17° North 263 303 6,700 -950 Descending Boston Center
Sun 06:06:22 PM 44.1375 -73.2819 18° North 263 303 5,700 -900 Descending Boston Center
Sun 06:07:22 PM 44.2022 -73.2567 16° North 257 296 4,900 -850 Descending Boston Center
Sun 06:08:22 PM 44.2647 -73.2344 14° North 239 275 4,000 -850 Descending Boston Center
Sun 06:09:22 PM 44.3275 -73.2178 11° North 234 269 3,200 -800 Descending Boston Center
Sun 06:10:22 PM 44.3858 -73.2042 North 224 258 2,400 -650 Descending Boston Center
Sun 06:11:22 PM 44.4422 -73.1989 North 212 244 1,900 -318 Descending Boston Center
Sun 06:12:34 PM 44.4881 -73.1908 North 177 204 1,700 -545 Descending Boston Center
Sun 06:13:34 PM 44.4842 -73.1558 99° East 87 100 700 -650 Descending Boston Center
Sun 06:14:34 PM 44.4653 -73.1497 167° South 40 46 400 -300 Descending Boston Center
Sun 06:16:00 PM 44.4667 -73.1500 10° North  Level FlightAware Approximate
Sun 06:23:00 PM 44.4719 -73.1533 10° North  Level Estimated

Login

Don't have an account? Register now (free) for customized features, flight alerts, and more!